createdAt,value
2022-10-15T00:00:13.158Z,7.82
2022-10-15T00:02:39.519Z,7.07
2022-10-15T00:05:05.933Z,7.93
2022-10-15T00:07:32.222Z,7.65
2022-10-15T00:09:58.529Z,8.95
2022-10-15T00:12:25.027Z,8.15
2022-10-15T00:14:51.294Z,8.70
2022-10-15T00:17:17.634Z,8.05
2022-10-15T00:19:43.901Z,8.93
2022-10-15T00:22:10.195Z,9.18
2022-10-15T00:24:37.219Z,9.32
2022-10-15T00:27:03.572Z,7.53
2022-10-15T00:29:29.843Z,7.40
2022-10-15T00:31:56.181Z,8.10
2022-10-15T00:34:22.462Z,7.60
2022-10-15T00:36:49.613Z,7.50
2022-10-15T00:39:15.898Z,7.60
2022-10-15T00:41:43.223Z,7.22
2022-10-15T00:44:21.583Z,8.43
2022-10-15T00:47:20.310Z,8.38
2022-10-15T00:49:54.439Z,8.25
2022-10-15T00:52:26.284Z,8.65
2022-10-15T00:54:57.609Z,7.28
2022-10-15T00:57:24.758Z,7.18
2022-10-15T00:59:54.135Z,7.32
2022-10-15T01:02:21.293Z,7.75
2022-10-15T01:04:48.121Z,7.53
2022-10-15T01:07:14.547Z,7.68
2022-10-15T01:09:42.883Z,7.80
2022-10-15T01:12:20.005Z,7.88
2022-10-15T01:14:58.368Z,7.68
2022-10-15T01:17:43.265Z,7.82
2022-10-15T01:20:09.518Z,8.02
2022-10-15T01:22:38.873Z,8.45
2022-10-15T01:28:05.029Z,6.65
2022-10-15T01:30:36.586Z,7.68
2022-10-15T01:33:05.887Z,8.13
2022-10-15T01:35:41.330Z,9.63
2022-10-15T01:38:25.332Z,7.60
2022-10-15T01:41:00.207Z,8.50
2022-10-15T01:43:38.346Z,8.80
2022-10-15T01:46:11.454Z,7.50
2022-10-15T01:48:38.724Z,7.15
2022-10-15T01:51:05.659Z,7.70
2022-10-15T01:53:34.234Z,7.95
2022-10-15T01:56:04.403Z,7.72
2022-10-15T01:58:30.932Z,7.47
2022-10-15T02:00:58.018Z,7.10
2022-10-15T02:03:24.397Z,7.30
2022-10-15T02:05:55.069Z,8.30
2022-10-15T02:08:33.506Z,9.00
2022-10-15T02:11:08.850Z,9.52
2022-10-15T02:13:53.731Z,8.77
2022-10-15T02:16:25.249Z,8.77
2022-10-15T02:18:51.502Z,8.25
2022-10-15T02:21:21.922Z,8.77
2022-10-15T02:23:52.439Z,7.25
2022-10-15T02:26:20.622Z,9.13
2022-10-15T02:28:50.299Z,8.38
2022-10-15T02:31:18.259Z,9.63
2022-10-15T02:33:45.000Z,8.68
2022-10-15T02:36:11.339Z,8.23
2022-10-15T02:38:38.119Z,8.23
2022-10-15T02:41:04.567Z,8.38
2022-10-15T02:43:30.851Z,7.97
2022-10-15T02:45:57.142Z,9.05
2022-10-15T02:48:23.927Z,8.50
2022-10-15T02:50:50.214Z,8.40
2022-10-15T02:53:16.501Z,9.45
2022-10-15T02:55:42.797Z,9.18
2022-10-15T02:58:09.079Z,8.77
2022-10-15T03:00:35.346Z,9.68
2022-10-15T03:03:01.629Z,8.18
2022-10-15T03:07:59.742Z,7.60
2022-10-15T03:10:26.203Z,7.65
2022-10-15T03:12:52.482Z,7.40
2022-10-15T03:15:18.854Z,6.60
2022-10-15T03:17:45.135Z,7.25
2022-10-15T03:20:11.475Z,7.25
2022-10-15T03:22:37.758Z,6.80
2022-10-15T03:25:04.211Z,7.38
2022-10-15T03:27:30.490Z,6.93
2022-10-15T03:29:56.751Z,7.35
2022-10-15T03:32:23.046Z,7.20
2022-10-15T03:34:49.344Z,7.60
2022-10-15T03:37:15.642Z,8.05
2022-10-15T03:39:42.021Z,6.88
2022-10-15T03:42:08.307Z,6.70
2022-10-15T03:44:34.850Z,7.28
2022-10-15T03:47:01.328Z,7.00
2022-10-15T03:49:27.591Z,7.40
2022-10-15T03:51:53.891Z,6.97
2022-10-15T03:54:20.195Z,7.18
2022-10-15T03:56:46.479Z,8.02
2022-10-15T03:59:12.749Z,7.50
2022-10-15T04:01:39.012Z,8.13
2022-10-15T04:04:05.291Z,7.75
2022-10-15T04:06:34.162Z,7.72
2022-10-15T04:09:00.451Z,7.93
2022-10-15T04:11:26.824Z,7.32
2022-10-15T04:13:53.109Z,7.53
2022-10-15T04:16:19.395Z,8.00
2022-10-15T04:18:45.767Z,7.35
2022-10-15T04:21:12.051Z,7.57
2022-10-15T04:23:38.350Z,7.15
2022-10-15T04:26:04.995Z,7.85
2022-10-15T04:28:31.345Z,7.53
2022-10-15T04:30:58.432Z,7.22
2022-10-15T04:33:24.899Z,7.22
2022-10-15T04:36:00.675Z,6.78
2022-10-15T04:38:27.082Z,6.53
2022-10-15T04:41:04.337Z,6.22
2022-10-15T04:43:30.980Z,6.78
2022-10-15T04:45:58.172Z,6.75
2022-10-15T04:48:24.758Z,7.05
2022-10-15T04:50:51.106Z,6.60
2022-10-15T04:53:17.399Z,6.95
2022-10-15T04:55:43.653Z,6.53
2022-10-15T04:58:10.009Z,6.00
2022-10-15T05:00:36.277Z,6.65
2022-10-15T05:03:02.544Z,6.82
2022-10-15T05:05:28.797Z,5.35
2022-10-15T05:07:55.067Z,7.00
2022-10-15T05:10:21.330Z,7.30
2022-10-15T05:12:49.360Z,5.65
2022-10-15T05:15:17.802Z,7.13
2022-10-15T05:17:44.091Z,7.95
2022-10-15T05:20:10.531Z,6.68
2022-10-15T05:22:36.842Z,6.50
2022-10-15T05:25:03.176Z,6.63
2022-10-15T05:27:29.451Z,6.25
2022-10-15T05:29:55.721Z,6.38
2022-10-15T05:34:50.138Z,6.18
2022-10-15T05:37:16.548Z,6.80
2022-10-15T05:39:43.104Z,4.97
2022-10-15T05:42:10.145Z,5.80
2022-10-15T05:44:36.463Z,6.63
2022-10-15T05:47:02.746Z,5.15
2022-10-15T05:49:29.030Z,5.95
2022-10-15T05:54:26.555Z,5.15
2022-10-15T05:56:52.812Z,5.90
2022-10-15T05:59:19.095Z,6.05
2022-10-15T06:01:45.423Z,5.82
2022-10-15T06:04:11.818Z,5.07
2022-10-15T06:06:38.100Z,4.93
2022-10-15T06:09:04.509Z,5.70
2022-10-15T06:11:30.791Z,6.00
2022-10-15T06:13:57.061Z,5.32
2022-10-15T06:16:24.147Z,5.05
2022-10-15T06:18:51.859Z,5.53
2022-10-15T06:21:18.123Z,5.68
2022-10-15T06:23:45.561Z,5.63
2022-10-15T06:26:11.862Z,4.68
2022-10-15T06:28:38.478Z,4.40
2022-10-15T06:31:05.294Z,5.13
2022-10-15T06:33:32.067Z,4.63
2022-10-15T06:36:05.766Z,4.28
2022-10-15T06:38:32.523Z,5.28
2022-10-15T06:40:58.952Z,5.30
2022-10-15T06:43:25.312Z,5.03
2022-10-15T06:45:51.590Z,4.30
2022-10-15T06:48:17.985Z,5.53
2022-10-15T06:50:44.437Z,4.10
2022-10-15T06:53:10.717Z,5.55
2022-10-15T06:55:39.418Z,4.60
2022-10-15T06:58:05.671Z,5.15
2022-10-15T07:00:31.999Z,5.10
2022-10-15T07:03:02.761Z,4.25
2022-10-15T07:05:29.023Z,4.03
2022-10-15T07:07:56.221Z,4.13
2022-10-15T07:10:23.198Z,3.95
2022-10-15T07:12:49.568Z,3.45
2022-10-15T07:15:16.228Z,3.63
2022-10-15T07:17:49.093Z,3.55
2022-10-15T07:20:17.815Z,3.28
2022-10-15T07:22:46.809Z,3.47
2022-10-15T07:25:13.101Z,5.53
2022-10-15T07:27:39.794Z,5.25
2022-10-15T07:30:06.899Z,5.93
2022-10-15T07:32:33.280Z,7.35
2022-10-15T07:34:59.688Z,5.28
2022-10-15T07:37:25.965Z,6.22
2022-10-15T07:39:52.306Z,5.97
2022-10-15T07:42:18.698Z,5.10
2022-10-15T07:44:44.987Z,4.63
2022-10-15T07:47:11.312Z,5.70
2022-10-15T07:49:37.596Z,5.20
2022-10-15T07:52:03.880Z,5.32
2022-10-15T07:54:32.735Z,4.90
2022-10-15T07:56:59.007Z,5.15
2022-10-15T07:59:25.329Z,4.85
2022-10-15T08:01:51.613Z,4.93
2022-10-15T08:04:18.356Z,5.28
2022-10-15T08:06:44.648Z,4.57
2022-10-15T08:09:10.975Z,5.18
2022-10-15T08:11:37.290Z,6.65
2022-10-15T08:14:04.078Z,7.15
2022-10-15T08:16:30.432Z,6.32
2022-10-15T08:18:57.520Z,6.70
2022-10-15T08:21:23.792Z,7.35
2022-10-15T08:23:50.088Z,7.05
2022-10-15T08:26:16.359Z,7.82
2022-10-15T08:28:42.804Z,6.70
2022-10-15T08:31:09.195Z,6.35
2022-10-15T08:33:36.350Z,6.65
2022-10-15T08:36:05.192Z,7.93
2022-10-15T08:38:31.565Z,6.50
2022-10-15T08:40:59.292Z,7.03
2022-10-15T08:43:45.826Z,6.72
2022-10-15T08:46:30.515Z,6.70
2022-10-15T08:48:58.558Z,6.53
2022-10-15T08:51:26.502Z,5.20
2022-10-15T08:53:54.922Z,5.00
2022-10-15T08:56:26.987Z,5.82
2022-10-15T08:58:53.241Z,5.55
2022-10-15T09:01:41.599Z,5.40
2022-10-15T09:04:18.276Z,5.15
2022-10-15T09:06:44.965Z,4.63
2022-10-15T09:09:17.100Z,4.30
2022-10-15T09:11:52.058Z,4.45
2022-10-15T09:14:20.292Z,3.72
2022-10-15T09:16:48.569Z,2.60
2022-10-15T09:19:23.212Z,2.17
2022-10-15T09:21:50.751Z,2.45
2022-10-15T09:24:20.620Z,1.85
2022-10-15T09:26:47.094Z,1.60
2022-10-15T09:29:19.599Z,1.95
2022-10-15T09:31:49.718Z,2.20
2022-10-15T09:34:21.897Z,1.23
2022-10-15T09:37:00.341Z,1.10
2022-10-15T09:39:41.186Z,1.45
2022-10-15T09:42:23.989Z,0.82
2022-10-15T09:44:51.491Z,0.70
2022-10-15T09:47:29.425Z,0.45
2022-10-15T09:49:55.720Z,0.85
2022-10-15T09:52:22.122Z,0.73
2022-10-15T09:54:51.395Z,0.73
2022-10-15T09:57:19.329Z,0.80
2022-10-15T09:59:52.505Z,0.32
2022-10-15T10:02:19.884Z,0.82
2022-10-15T10:04:46.375Z,0.90
2022-10-15T10:07:32.331Z,1.30
2022-10-15T10:10:01.718Z,0.73
2022-10-15T10:12:30.679Z,0.93
2022-10-15T10:15:00.374Z,1.02
2022-10-15T10:17:27.495Z,0.70
2022-10-15T10:20:08.863Z,0.82
2022-10-15T10:22:54.796Z,0.50
2022-10-15T10:25:26.946Z,0.47
2022-10-15T10:28:13.509Z,0.47
2022-10-15T10:30:47.666Z,0.45
2022-10-15T10:33:15.143Z,0.88
2022-10-15T10:35:45.849Z,0.68
2022-10-15T10:38:26.628Z,0.47
2022-10-15T10:40:55.317Z,1.05
2022-10-15T10:43:24.380Z,0.77
2022-10-15T10:45:54.969Z,0.73
2022-10-15T10:48:24.668Z,0.47
2022-10-15T10:51:01.922Z,0.68
2022-10-15T10:53:28.189Z,0.60
2022-10-15T10:55:55.186Z,0.30
2022-10-15T10:58:26.276Z,0.50
2022-10-15T11:00:53.679Z,0.60
2022-10-15T11:03:22.754Z,0.35
2022-10-15T11:05:50.814Z,0.33
2022-10-15T11:08:25.687Z,0.32
2022-10-15T11:10:59.435Z,0.25
2022-10-15T11:13:41.192Z,0.30
2022-10-15T11:16:20.718Z,0.10
2022-10-15T11:18:46.982Z,0.22
2022-10-15T11:21:16.318Z,0.00
2022-10-15T11:24:01.325Z,0.13
2022-10-15T11:26:51.489Z,0.00
2022-10-15T11:29:33.475Z,0.20
2022-10-15T11:32:26.077Z,0.10
2022-10-15T11:35:16.969Z,0.10
2022-10-15T11:38:09.321Z,0.00
2022-10-15T11:40:55.898Z,0.00
2022-10-15T11:43:40.701Z,0.00
2022-10-15T11:46:16.283Z,0.00
2022-10-15T11:48:50.004Z,0.10
2022-10-15T11:51:16.248Z,0.10
2022-10-15T11:53:45.536Z,0.15
2022-10-15T11:56:17.056Z,0.10
2022-10-15T11:58:54.890Z,0.00
2022-10-15T12:01:27.077Z,0.03
2022-10-15T12:03:58.121Z,0.00
2022-10-15T12:06:30.277Z,0.00
2022-10-15T12:08:57.389Z,0.08
2022-10-15T12:11:26.470Z,0.15
2022-10-15T12:13:52.754Z,0.00
2022-10-15T12:16:28.279Z,0.00
2022-10-15T12:19:08.069Z,0.10
2022-10-15T12:21:36.540Z,0.00
2022-10-15T12:24:04.022Z,0.10
2022-10-15T12:26:32.468Z,0.00
2022-10-15T12:29:02.328Z,0.00
2022-10-15T12:31:49.112Z,0.00
2022-10-15T12:34:34.143Z,0.20
2022-10-15T12:37:01.885Z,0.00
2022-10-15T12:42:24.188Z,0.08
2022-10-15T12:44:50.971Z,0.10
2022-10-15T12:47:37.263Z,0.00
2022-10-15T12:50:05.933Z,0.20
2022-10-15T12:52:51.064Z,0.52
2022-10-15T12:55:26.470Z,0.00
2022-10-15T12:58:00.391Z,0.10
2022-10-15T13:00:29.994Z,0.00
2022-10-15T13:03:01.238Z,0.00
2022-10-15T13:05:27.710Z,0.03
2022-10-15T13:07:55.940Z,0.00
2022-10-15T13:10:45.289Z,0.00
2022-10-15T13:13:22.656Z,0.00
2022-10-15T13:15:56.915Z,0.10
2022-10-15T13:18:24.515Z,0.00
2022-10-15T13:20:54.582Z,0.10
2022-10-15T13:23:31.097Z,0.00
2022-10-15T13:26:16.930Z,0.00
2022-10-15T13:28:43.903Z,0.00
2022-10-15T13:31:16.259Z,0.00
2022-10-15T13:33:43.875Z,0.03
2022-10-15T13:36:16.052Z,0.00
2022-10-15T13:38:47.162Z,0.00
2022-10-15T13:41:13.738Z,0.05
2022-10-15T13:43:50.432Z,0.00
2022-10-15T13:46:16.707Z,0.00
2022-10-15T13:51:13.252Z,0.00
2022-10-15T13:53:40.785Z,0.10
2022-10-15T13:56:27.586Z,0.10
2022-10-15T13:58:54.660Z,0.00
2022-10-15T14:01:22.010Z,0.00
2022-10-15T14:03:58.287Z,0.00
2022-10-15T14:06:28.782Z,0.00
2022-10-15T14:09:00.063Z,0.00
2022-10-15T14:11:27.865Z,0.00
2022-10-15T14:13:55.563Z,0.00
2022-10-15T14:16:25.287Z,0.00
2022-10-15T14:18:53.559Z,0.00
2022-10-15T14:21:21.767Z,0.35
2022-10-15T14:23:48.897Z,0.10
2022-10-15T14:26:16.797Z,0.30
2022-10-15T14:28:43.405Z,0.00
2022-10-15T14:31:24.809Z,0.00
2022-10-15T14:33:51.449Z,0.00
2022-10-15T14:36:17.703Z,0.00
2022-10-15T14:38:44.006Z,0.00
2022-10-15T14:41:30.187Z,0.00
2022-10-15T14:44:00.288Z,0.00
2022-10-15T14:46:28.394Z,0.00
2022-10-15T14:48:54.680Z,0.20
2022-10-15T14:51:24.870Z,0.00
2022-10-15T14:53:52.655Z,0.00
2022-10-15T14:56:19.998Z,0.00
2022-10-15T14:58:53.210Z,0.10
2022-10-15T15:01:20.364Z,0.00
2022-10-15T15:03:53.535Z,0.20
2022-10-15T15:06:20.047Z,0.03
2022-10-15T15:08:46.537Z,0.05
2022-10-15T15:11:19.422Z,0.00
2022-10-15T15:13:46.119Z,0.15
2022-10-15T15:16:13.571Z,0.00
2022-10-15T15:18:42.363Z,0.08
2022-10-15T15:21:12.425Z,0.10
2022-10-15T15:23:38.770Z,0.30
2022-10-15T15:26:05.094Z,0.10
2022-10-15T15:28:31.399Z,0.05
2022-10-15T15:31:02.415Z,0.43
2022-10-15T15:33:28.862Z,0.10
2022-10-15T15:36:02.914Z,0.20
2022-10-15T15:38:32.251Z,0.20
2022-10-15T15:41:03.406Z,0.00
2022-10-15T15:43:29.882Z,0.10
2022-10-15T15:45:56.208Z,0.22
2022-10-15T15:48:22.507Z,0.32
2022-10-15T15:50:48.800Z,0.05
2022-10-15T15:53:15.059Z,0.10
2022-10-15T15:55:41.347Z,0.20
2022-10-15T15:58:07.612Z,0.20
2022-10-15T16:00:33.892Z,0.10
2022-10-15T16:03:00.260Z,0.40
2022-10-15T16:05:26.596Z,0.30
2022-10-15T16:07:52.895Z,0.75
2022-10-15T16:10:19.206Z,1.10
2022-10-15T16:12:45.487Z,0.90
2022-10-15T16:15:14.560Z,0.55
2022-10-15T16:17:41.795Z,0.50
2022-10-15T16:20:08.512Z,0.52
2022-10-15T16:22:34.802Z,0.80
2022-10-15T16:25:01.106Z,0.40
2022-10-15T16:27:27.764Z,0.60
2022-10-15T16:29:54.365Z,1.33
2022-10-15T16:32:20.654Z,1.05
2022-10-15T16:34:47.025Z,1.02
2022-10-15T16:37:13.291Z,1.30
2022-10-15T16:39:39.574Z,0.77
2022-10-15T16:42:05.972Z,1.30
2022-10-15T16:44:32.291Z,1.90
2022-10-15T16:46:58.657Z,1.00
2022-10-15T16:49:25.045Z,1.00
2022-10-15T16:51:51.318Z,1.58
2022-10-15T16:54:17.671Z,1.10
2022-10-15T16:56:45.392Z,0.98
2022-10-15T16:59:14.138Z,1.02
2022-10-15T17:01:40.482Z,1.27
2022-10-15T17:04:06.897Z,1.17
2022-10-15T17:06:33.427Z,1.00
2022-10-15T17:09:00.867Z,0.73
2022-10-15T17:11:28.494Z,0.88
2022-10-15T17:13:56.059Z,1.98
2022-10-15T17:16:24.076Z,0.80
2022-10-15T17:21:23.418Z,1.20
2022-10-15T17:24:00.206Z,1.35
2022-10-15T17:26:28.681Z,0.82
2022-10-15T17:28:54.937Z,1.20
2022-10-15T17:31:22.548Z,0.90
2022-10-15T17:33:49.425Z,0.85
2022-10-15T17:36:20.373Z,1.10
2022-10-15T17:38:46.742Z,0.93
2022-10-15T17:41:17.433Z,1.02
2022-10-15T17:43:44.123Z,0.75
2022-10-15T17:46:12.355Z,1.10
2022-10-15T17:48:39.309Z,1.05
2022-10-15T17:51:06.455Z,1.25
2022-10-15T17:53:33.296Z,1.27
2022-10-15T17:56:00.110Z,0.88
2022-10-15T17:58:26.445Z,0.95
2022-10-15T18:00:54.085Z,0.98
2022-10-15T18:03:20.751Z,1.35
2022-10-15T18:05:48.255Z,1.98
2022-10-15T18:08:15.021Z,2.00
2022-10-15T18:10:41.379Z,1.65
2022-10-15T18:13:07.883Z,1.13
2022-10-15T18:15:36.587Z,1.38
2022-10-15T18:18:04.995Z,1.10
2022-10-15T18:20:31.307Z,0.90
2022-10-15T18:22:57.638Z,1.10
2022-10-15T18:25:23.917Z,0.77
2022-10-15T18:27:50.255Z,0.85
2022-10-15T18:30:17.125Z,1.10
2022-10-15T18:32:43.397Z,0.65
2022-10-15T18:35:09.694Z,0.60
2022-10-15T18:37:36.033Z,0.43
2022-10-15T18:40:02.403Z,0.82
2022-10-15T18:42:28.815Z,0.30
2022-10-15T18:44:55.298Z,0.45
2022-10-15T18:47:21.610Z,0.43
2022-10-15T18:49:47.890Z,0.40
2022-10-15T18:52:35.037Z,0.25
2022-10-15T18:55:00.507Z,0.38
2022-10-15T18:57:26.797Z,0.30
2022-10-15T19:02:24.529Z,0.30
2022-10-15T19:04:50.991Z,0.20
2022-10-15T19:07:17.382Z,0.17
2022-10-15T19:09:43.785Z,0.30
2022-10-15T19:12:10.186Z,0.47
2022-10-15T19:14:36.563Z,0.28
2022-10-15T19:17:02.839Z,0.30
2022-10-15T19:19:29.382Z,0.20
2022-10-15T19:21:56.081Z,0.20
2022-10-15T19:24:23.120Z,0.20
2022-10-15T19:26:50.660Z,0.32
2022-10-15T19:29:17.317Z,0.60
2022-10-15T19:31:44.465Z,0.20
2022-10-15T19:34:10.942Z,1.52
2022-10-15T19:36:44.361Z,0.20
2022-10-15T19:39:15.298Z,0.17
2022-10-15T19:41:42.105Z,0.30
2022-10-15T19:44:09.539Z,0.30
2022-10-15T19:46:36.174Z,0.40
2022-10-15T19:49:02.893Z,0.30
2022-10-15T19:51:29.186Z,0.20
2022-10-15T19:53:56.356Z,0.38
2022-10-15T19:56:22.729Z,0.40
2022-10-15T19:58:53.863Z,0.17
2022-10-15T20:01:20.271Z,0.20
2022-10-15T20:03:46.576Z,0.30
2022-10-15T20:06:12.879Z,0.20
2022-10-15T20:08:39.142Z,0.10
2022-10-15T20:11:06.544Z,0.10
2022-10-15T20:13:33.222Z,0.20
2022-10-15T20:16:02.315Z,0.45
2022-10-15T20:18:28.865Z,0.20
2022-10-15T20:20:55.149Z,0.38
2022-10-15T20:23:23.462Z,0.20
2022-10-15T20:25:49.842Z,0.30
2022-10-15T20:28:18.116Z,0.00
2022-10-15T20:30:45.447Z,0.10
2022-10-15T20:33:12.015Z,0.13
2022-10-15T20:35:39.091Z,0.00
2022-10-15T20:38:05.710Z,0.35
2022-10-15T20:40:32.591Z,0.43
2022-10-15T20:42:58.901Z,0.55
2022-10-15T20:45:31.197Z,0.60
2022-10-15T20:47:57.997Z,0.60
2022-10-15T20:50:25.753Z,0.17
2022-10-15T20:52:53.022Z,0.30
2022-10-15T20:55:19.443Z,0.35
2022-10-15T20:57:45.822Z,0.00
2022-10-15T21:00:12.516Z,0.03
2022-10-15T21:02:38.773Z,1.23
2022-10-15T21:05:05.326Z,0.38
2022-10-15T21:07:31.590Z,0.20
2022-10-15T21:09:58.707Z,0.10
2022-10-15T21:12:25.315Z,0.35
2022-10-15T21:14:51.794Z,0.43
2022-10-15T21:17:18.083Z,0.10
2022-10-15T21:19:45.428Z,0.22
2022-10-15T21:22:14.134Z,0.22
2022-10-15T21:24:40.472Z,0.10
2022-10-15T21:27:07.355Z,0.10
2022-10-15T21:29:33.623Z,0.50
2022-10-15T21:31:59.936Z,0.30
2022-10-15T21:34:27.732Z,0.30
2022-10-15T21:36:55.194Z,0.55
2022-10-15T21:39:21.855Z,0.85
2022-10-15T21:41:48.218Z,2.08
2022-10-15T21:44:14.679Z,1.55
2022-10-15T21:46:41.313Z,0.90
2022-10-15T21:49:08.421Z,0.40
2022-10-15T21:51:35.773Z,0.38
2022-10-15T21:54:03.473Z,0.52
2022-10-15T21:56:30.219Z,1.80
2022-10-15T21:58:58.829Z,1.40
2022-10-15T22:01:26.268Z,0.50
2022-10-15T22:03:53.897Z,1.10
2022-10-15T22:06:20.948Z,1.70
2022-10-15T22:08:47.633Z,1.20
2022-10-15T22:11:24.379Z,0.25
2022-10-15T22:13:57.820Z,0.43
2022-10-15T22:16:25.014Z,0.17
2022-10-15T22:18:51.329Z,0.38
2022-10-15T22:21:22.046Z,0.28
2022-10-15T22:23:52.685Z,0.38
2022-10-15T22:26:20.261Z,0.40
2022-10-15T22:28:46.821Z,0.47
2022-10-15T22:31:14.534Z,0.40
2022-10-15T22:33:40.934Z,0.30
2022-10-15T22:36:13.352Z,0.65
2022-10-15T22:38:43.806Z,0.45
2022-10-15T22:41:10.364Z,0.43
2022-10-15T22:43:36.683Z,0.50
2022-10-15T22:46:03.553Z,0.88
2022-10-15T22:48:32.294Z,0.47
2022-10-15T22:50:58.899Z,0.70
2022-10-15T22:53:25.575Z,1.00
2022-10-15T22:55:55.595Z,0.30
2022-10-15T23:00:48.116Z,0.45
2022-10-15T23:03:14.435Z,0.65
2022-10-15T23:05:40.706Z,0.60
2022-10-15T23:08:06.985Z,0.52
2022-10-15T23:10:33.287Z,0.60
2022-10-15T23:12:59.552Z,0.90
2022-10-15T23:15:25.831Z,0.50
2022-10-15T23:17:52.091Z,0.45
2022-10-15T23:20:18.383Z,0.75
2022-10-15T23:22:44.645Z,0.57
2022-10-15T23:25:10.938Z,0.40
2022-10-15T23:27:37.200Z,0.85
2022-10-15T23:30:14.808Z,0.60
2022-10-15T23:32:53.582Z,0.40
2022-10-15T23:35:20.035Z,0.52
2022-10-15T23:37:46.317Z,0.88
2022-10-15T23:40:12.607Z,0.60
2022-10-15T23:42:38.910Z,0.70
2022-10-15T23:45:05.617Z,0.93
2022-10-15T23:47:31.881Z,0.77
2022-10-15T23:49:58.163Z,0.60
2022-10-15T23:52:24.614Z,0.60
2022-10-15T23:54:50.898Z,0.93
2022-10-15T23:57:17.193Z,0.57
2022-10-15T23:59:43.462Z,1.25
